sensor_id;sensor_type;location;lat;lon;timestamp;temperature;humidity
7518;DHT22;3800;48.922;9.444;2024-02-21T00:01:28;6.90;99.90
7518;DHT22;3800;48.922;9.444;2024-02-21T00:03:57;6.90;99.90
7518;DHT22;3800;48.922;9.444;2024-02-21T00:06:25;6.90;99.90
7518;DHT22;3800;48.922;9.444;2024-02-21T00:08:53;6.90;99.90
7518;DHT22;3800;48.922;9.444;2024-02-21T00:11:23;6.90;99.90
7518;DHT22;3800;48.922;9.444;2024-02-21T00:13:52;6.90;99.90
7518;DHT22;3800;48.922;9.444;2024-02-21T00:16:21;6.90;99.90
7518;DHT22;3800;48.922;9.444;2024-02-21T00:18:49;6.90;99.90
7518;DHT22;3800;48.922;9.444;2024-02-21T00:21:18;6.90;99.90
7518;DHT22;3800;48.922;9.444;2024-02-21T00:23:47;7.00;99.90
7518;DHT22;3800;48.922;9.444;2024-02-21T00:26:15;7.00;99.90
7518;DHT22;3800;48.922;9.444;2024-02-21T00:28:44;6.90;99.90
7518;DHT22;3800;48.922;9.444;2024-02-21T00:31:12;6.90;99.90
7518;DHT22;3800;48.922;9.444;2024-02-21T00:33:42;6.90;99.90
7518;DHT22;3800;48.922;9.444;2024-02-21T00:36:11;6.90;99.90
7518;DHT22;3800;48.922;9.444;2024-02-21T00:38:40;6.90;99.90
7518;DHT22;3800;48.922;9.444;2024-02-21T00:41:08;6.90;99.90
7518;DHT22;3800;48.922;9.444;2024-02-21T00:43:36;6.90;99.90
7518;DHT22;3800;48.922;9.444;2024-02-21T00:46:05;6.90;99.90
7518;DHT22;3800;48.922;9.444;2024-02-21T00:48:34;6.90;99.90
7518;DHT22;3800;48.922;9.444;2024-02-21T00:51:04;6.90;99.90
7518;DHT22;3800;48.922;9.444;2024-02-21T00:53:32;6.90;99.90
7518;DHT22;3800;48.922;9.444;2024-02-21T00:56:01;6.90;99.90
7518;DHT22;3800;48.922;9.444;2024-02-21T00:58:31;6.90;99.90
7518;DHT22;3800;48.922;9.444;2024-02-21T01:01:00;6.90;99.90
7518;DHT22;3800;48.922;9.444;2024-02-21T01:03:28;7.00;99.90
7518;DHT22;3800;48.922;9.444;2024-02-21T01:05:59;6.90;99.90
7518;DHT22;3800;48.922;9.444;2024-02-21T01:08:27;6.90;99.90
7518;DHT22;3800;48.922;9.444;2024-02-21T01:10:56;7.00;99.90
7518;DHT22;3800;48.922;9.444;2024-02-21T01:13:24;7.00;99.90
7518;DHT22;3800;48.922;9.444;2024-02-21T01:15:52;7.00;99.90
7518;DHT22;3800;48.922;9.444;2024-02-21T01:18:20;7.00;99.90
7518;DHT22;3800;48.922;9.444;2024-02-21T01:20:49;7.00;99.90
7518;DHT22;3800;48.922;9.444;2024-02-21T01:23:17;7.00;99.90
7518;DHT22;3800;48.922;9.444;2024-02-21T01:25:45;7.00;99.90
7518;DHT22;3800;48.922;9.444;2024-02-21T01:28:14;7.00;99.90
7518;DHT22;3800;48.922;9.444;2024-02-21T01:30:44;7.00;99.90
7518;DHT22;3800;48.922;9.444;2024-02-21T01:33:12;7.10;99.90
7518;DHT22;3800;48.922;9.444;2024-02-21T01:35:40;7.10;99.90
7518;DHT22;3800;48.922;9.444;2024-02-21T01:38:08;7.10;99.90
7518;DHT22;3800;48.922;9.444;2024-02-21T01:40:36;7.20;99.90
7518;DHT22;3800;48.922;9.444;2024-02-21T01:43:14;7.20;99.90
7518;DHT22;3800;48.922;9.444;2024-02-21T01:45:33;7.20;99.90
7518;DHT22;3800;48.922;9.444;2024-02-21T01:48:02;7.20;99.90
7518;DHT22;3800;48.922;9.444;2024-02-21T01:50:31;7.20;99.90
7518;DHT22;3800;48.922;9.444;2024-02-21T01:52:59;7.20;99.90
7518;DHT22;3800;48.922;9.444;2024-02-21T01:55:27;7.20;99.90
7518;DHT22;3800;48.922;9.444;2024-02-21T01:57:55;7.20;99.90
7518;DHT22;3800;48.922;9.444;2024-02-21T02:00:24;7.20;99.90
7518;DHT22;3800;48.922;9.444;2024-02-21T02:02:52;7.20;99.90
7518;DHT22;3800;48.922;9.444;2024-02-21T02:05:20;7.20;99.90
7518;DHT22;3800;48.922;9.444;2024-02-21T02:07:49;7.10;99.90
7518;DHT22;3800;48.922;9.444;2024-02-21T02:10:17;7.10;99.90
7518;DHT22;3800;48.922;9.444;2024-02-21T02:12:47;7.10;99.90
7518;DHT22;3800;48.922;9.444;2024-02-21T02:15:15;7.10;99.90
7518;DHT22;3800;48.922;9.444;2024-02-21T02:17:44;7.10;99.90
7518;DHT22;3800;48.922;9.444;2024-02-21T02:20:13;7.10;99.90
7518;DHT22;3800;48.922;9.444;2024-02-21T02:22:41;7.10;99.90
7518;DHT22;3800;48.922;9.444;2024-02-21T02:25:11;7.10;99.90
7518;DHT22;3800;48.922;9.444;2024-02-21T02:27:42;7.00;99.90
7518;DHT22;3800;48.922;9.444;2024-02-21T02:30:10;7.10;99.90
7518;DHT22;3800;48.922;9.444;2024-02-21T02:32:43;7.00;99.90
7518;DHT22;3800;48.922;9.444;2024-02-21T02:35:08;7.00;99.90
7518;DHT22;3800;48.922;9.444;2024-02-21T02:37:36;7.00;99.90
7518;DHT22;3800;48.922;9.444;2024-02-21T02:40:07;7.00;99.90
7518;DHT22;3800;48.922;9.444;2024-02-21T02:42:38;7.00;99.90
7518;DHT22;3800;48.922;9.444;2024-02-21T02:45:08;7.00;99.90
7518;DHT22;3800;48.922;9.444;2024-02-21T02:47:39;7.00;99.90
7518;DHT22;3800;48.922;9.444;2024-02-21T02:50:06;7.00;99.90
7518;DHT22;3800;48.922;9.444;2024-02-21T02:52:34;7.10;99.90
7518;DHT22;3800;48.922;9.444;2024-02-21T02:55:04;7.10;99.90
7518;DHT22;3800;48.922;9.444;2024-02-21T02:57:33;7.10;99.90
7518;DHT22;3800;48.922;9.444;2024-02-21T03:00:01;7.10;99.90
7518;DHT22;3800;48.922;9.444;2024-02-21T03:02:30;7.10;99.90
7518;DHT22;3800;48.922;9.444;2024-02-21T03:04:58;7.10;99.90
7518;DHT22;3800;48.922;9.444;2024-02-21T03:07:27;7.00;99.90
7518;DHT22;3800;48.922;9.444;2024-02-21T03:09:55;7.10;99.90
7518;DHT22;3800;48.922;9.444;2024-02-21T03:12:23;7.10;99.90
7518;DHT22;3800;48.922;9.444;2024-02-21T03:14:52;7.10;99.90
7518;DHT22;3800;48.922;9.444;2024-02-21T03:17:20;7.00;99.90
7518;DHT22;3800;48.922;9.444;2024-02-21T03:19:54;7.00;99.90
7518;DHT22;3800;48.922;9.444;2024-02-21T03:22:24;6.90;99.90
7518;DHT22;3800;48.922;9.444;2024-02-21T03:24:55;6.90;99.90
7518;DHT22;3800;48.922;9.444;2024-02-21T03:27:24;6.80;99.90
7518;DHT22;3800;48.922;9.444;2024-02-21T03:29:53;6.70;99.90
7518;DHT22;3800;48.922;9.444;2024-02-21T03:32:21;6.70;99.90
7518;DHT22;3800;48.922;9.444;2024-02-21T03:34:51;6.60;99.90
7518;DHT22;3800;48.922;9.444;2024-02-21T03:37:19;6.60;99.90
7518;DHT22;3800;48.922;9.444;2024-02-21T03:39:47;6.60;99.90
7518;DHT22;3800;48.922;9.444;2024-02-21T03:42:17;6.50;99.90
7518;DHT22;3800;48.922;9.444;2024-02-21T03:44:45;6.50;99.90
7518;DHT22;3800;48.922;9.444;2024-02-21T03:47:13;6.50;99.90
7518;DHT22;3800;48.922;9.444;2024-02-21T03:49:42;6.40;99.90
7518;DHT22;3800;48.922;9.444;2024-02-21T03:52:11;6.40;99.90
7518;DHT22;3800;48.922;9.444;2024-02-21T03:54:41;6.40;99.90
7518;DHT22;3800;48.922;9.444;2024-02-21T03:57:10;6.40;99.90
7518;DHT22;3800;48.922;9.444;2024-02-21T03:59:39;6.40;99.90
7518;DHT22;3800;48.922;9.444;2024-02-21T04:02:07;6.40;99.90
7518;DHT22;3800;48.922;9.444;2024-02-21T04:04:35;6.40;99.90
7518;DHT22;3800;48.922;9.444;2024-02-21T04:07:04;6.40;99.90
7518;DHT22;3800;48.922;9.444;2024-02-21T04:09:32;6.40;99.90
7518;DHT22;3800;48.922;9.444;2024-02-21T04:12:01;6.40;99.90
7518;DHT22;3800;48.922;9.444;2024-02-21T04:14:30;6.40;99.90
7518;DHT22;3800;48.922;9.444;2024-02-21T04:16:59;6.40;99.90
7518;DHT22;3800;48.922;9.444;2024-02-21T04:19:28;6.40;99.90
7518;DHT22;3800;48.922;9.444;2024-02-21T04:21:57;6.40;99.90
7518;DHT22;3800;48.922;9.444;2024-02-21T04:24:26;6.40;99.90
7518;DHT22;3800;48.922;9.444;2024-02-21T04:26:54;6.40;99.90
7518;DHT22;3800;48.922;9.444;2024-02-21T04:29:22;6.30;99.90
7518;DHT22;3800;48.922;9.444;2024-02-21T04:31:51;6.30;99.90
7518;DHT22;3800;48.922;9.444;2024-02-21T04:34:20;6.20;99.90
7518;DHT22;3800;48.922;9.444;2024-02-21T04:36:49;6.20;99.90
7518;DHT22;3800;48.922;9.444;2024-02-21T04:39:17;6.10;99.90
7518;DHT22;3800;48.922;9.444;2024-02-21T04:41:47;6.10;99.90
7518;DHT22;3800;48.922;9.444;2024-02-21T04:44:15;6.00;99.90
7518;DHT22;3800;48.922;9.444;2024-02-21T04:46:43;6.10;99.90
7518;DHT22;3800;48.922;9.444;2024-02-21T04:49:12;6.00;99.90
7518;DHT22;3800;48.922;9.444;2024-02-21T04:51:41;6.00;99.90
7518;DHT22;3800;48.922;9.444;2024-02-21T04:54:08;6.00;99.90
7518;DHT22;3800;48.922;9.444;2024-02-21T04:56:38;5.90;99.90
7518;DHT22;3800;48.922;9.444;2024-02-21T04:59:07;5.90;99.90
7518;DHT22;3800;48.922;9.444;2024-02-21T05:01:35;5.90;99.90
7518;DHT22;3800;48.922;9.444;2024-02-21T05:04:04;5.90;99.90
7518;DHT22;3800;48.922;9.444;2024-02-21T05:06:41;5.80;99.90
7518;DHT22;3800;48.922;9.444;2024-02-21T05:09:09;5.80;99.90
7518;DHT22;3800;48.922;9.444;2024-02-21T05:11:37;5.70;99.90
7518;DHT22;3800;48.922;9.444;2024-02-21T05:14:05;5.70;99.90
7518;DHT22;3800;48.922;9.444;2024-02-21T05:16:35;5.70;99.90
7518;DHT22;3800;48.922;9.444;2024-02-21T05:19:04;5.60;99.90
7518;DHT22;3800;48.922;9.444;2024-02-21T05:21:32;5.60;99.90
7518;DHT22;3800;48.922;9.444;2024-02-21T05:24:00;5.60;99.90
7518;DHT22;3800;48.922;9.444;2024-02-21T05:26:29;5.50;99.90
7518;DHT22;3800;48.922;9.444;2024-02-21T05:28:58;5.50;99.90
7518;DHT22;3800;48.922;9.444;2024-02-21T05:31:42;5.40;99.90
7518;DHT22;3800;48.922;9.444;2024-02-21T05:33:59;5.30;99.90
7518;DHT22;3800;48.922;9.444;2024-02-21T05:36:27;5.30;99.90
7518;DHT22;3800;48.922;9.444;2024-02-21T05:38:55;5.20;99.90
7518;DHT22;3800;48.922;9.444;2024-02-21T05:41:23;5.20;99.90
7518;DHT22;3800;48.922;9.444;2024-02-21T05:43:52;5.00;99.90
7518;DHT22;3800;48.922;9.444;2024-02-21T05:46:21;4.80;99.90
7518;DHT22;3800;48.922;9.444;2024-02-21T05:48:51;4.80;99.90
7518;DHT22;3800;48.922;9.444;2024-02-21T05:51:19;4.80;99.90
7518;DHT22;3800;48.922;9.444;2024-02-21T05:53:49;4.70;99.90
7518;DHT22;3800;48.922;9.444;2024-02-21T05:56:17;4.70;99.90
7518;DHT22;3800;48.922;9.444;2024-02-21T05:58:45;4.70;99.90
7518;DHT22;3800;48.922;9.444;2024-02-21T06:01:14;4.70;99.90
7518;DHT22;3800;48.922;9.444;2024-02-21T06:03:43;4.70;99.90
7518;DHT22;3800;48.922;9.444;2024-02-21T06:06:12;4.70;99.90
7518;DHT22;3800;48.922;9.444;2024-02-21T06:08:41;4.70;99.90
7518;DHT22;3800;48.922;9.444;2024-02-21T06:11:10;4.70;99.90
7518;DHT22;3800;48.922;9.444;2024-02-21T06:13:39;4.70;99.90
7518;DHT22;3800;48.922;9.444;2024-02-21T06:16:08;4.70;99.90
7518;DHT22;3800;48.922;9.444;2024-02-21T06:18:36;4.80;99.90
7518;DHT22;3800;48.922;9.444;2024-02-21T06:21:04;4.80;99.90
7518;DHT22;3800;48.922;9.444;2024-02-21T06:23:32;4.80;99.90
7518;DHT22;3800;48.922;9.444;2024-02-21T06:26:01;4.80;99.90
7518;DHT22;3800;48.922;9.444;2024-02-21T06:28:29;4.80;99.90
7518;DHT22;3800;48.922;9.444;2024-02-21T06:30:58;4.80;99.90
7518;DHT22;3800;48.922;9.444;2024-02-21T06:33:26;4.80;99.90
7518;DHT22;3800;48.922;9.444;2024-02-21T06:35:54;4.70;99.90
7518;DHT22;3800;48.922;9.444;2024-02-21T06:38:23;4.70;99.90
7518;DHT22;3800;48.922;9.444;2024-02-21T06:40:51;4.70;99.90
7518;DHT22;3800;48.922;9.444;2024-02-21T06:43:20;4.70;99.90
7518;DHT22;3800;48.922;9.444;2024-02-21T06:45:47;4.70;99.90
7518;DHT22;3800;48.922;9.444;2024-02-21T06:48:16;4.80;99.90
7518;DHT22;3800;48.922;9.444;2024-02-21T06:50:44;4.80;99.90
7518;DHT22;3800;48.922;9.444;2024-02-21T06:53:12;4.80;99.90
7518;DHT22;3800;48.922;9.444;2024-02-21T06:55:41;4.70;99.90
7518;DHT22;3800;48.922;9.444;2024-02-21T06:58:09;4.80;99.90
7518;DHT22;3800;48.922;9.444;2024-02-21T07:00:38;4.80;99.90
7518;DHT22;3800;48.922;9.444;2024-02-21T07:03:05;4.80;99.90
7518;DHT22;3800;48.922;9.444;2024-02-21T07:05:34;4.80;99.90
7518;DHT22;3800;48.922;9.444;2024-02-21T07:08:02;4.80;99.90
7518;DHT22;3800;48.922;9.444;2024-02-21T07:10:30;4.80;99.90
7518;DHT22;3800;48.922;9.444;2024-02-21T07:12:59;4.80;99.90
7518;DHT22;3800;48.922;9.444;2024-02-21T07:15:27;4.80;99.90
7518;DHT22;3800;48.922;9.444;2024-02-21T07:17:55;4.80;99.90
7518;DHT22;3800;48.922;9.444;2024-02-21T07:20:24;4.70;99.90
7518;DHT22;3800;48.922;9.444;2024-02-21T07:22:52;4.80;99.90
7518;DHT22;3800;48.922;9.444;2024-02-21T07:25:20;4.80;99.90
7518;DHT22;3800;48.922;9.444;2024-02-21T07:27:48;4.70;99.90
7518;DHT22;3800;48.922;9.444;2024-02-21T07:30:17;4.80;99.90
7518;DHT22;3800;48.922;9.444;2024-02-21T07:32:48;4.70;99.90
7518;DHT22;3800;48.922;9.444;2024-02-21T07:35:14;4.80;99.90
7518;DHT22;3800;48.922;9.444;2024-02-21T07:37:42;4.80;99.90
7518;DHT22;3800;48.922;9.444;2024-02-21T07:40:13;4.90;99.90
7518;DHT22;3800;48.922;9.444;2024-02-21T07:42:42;5.00;99.90
7518;DHT22;3800;48.922;9.444;2024-02-21T07:45:10;5.00;99.90
7518;DHT22;3800;48.922;9.444;2024-02-21T07:47:38;5.10;99.90
7518;DHT22;3800;48.922;9.444;2024-02-21T07:50:08;5.30;99.90
7518;DHT22;3800;48.922;9.444;2024-02-21T07:52:36;5.30;99.90
7518;DHT22;3800;48.922;9.444;2024-02-21T07:55:04;5.40;99.90
7518;DHT22;3800;48.922;9.444;2024-02-21T07:57:33;5.60;99.90
7518;DHT22;3800;48.922;9.444;2024-02-21T08:00:01;5.70;99.90
7518;DHT22;3800;48.922;9.444;2024-02-21T08:02:29;5.90;99.90
7518;DHT22;3800;48.922;9.444;2024-02-21T08:04:57;6.10;99.90
7518;DHT22;3800;48.922;9.444;2024-02-21T08:07:26;6.30;99.90
7518;DHT22;3800;48.922;9.444;2024-02-21T08:09:55;6.60;99.90
7518;DHT22;3800;48.922;9.444;2024-02-21T08:12:23;6.60;99.90
7518;DHT22;3800;48.922;9.444;2024-02-21T08:14:51;6.70;99.90
7518;DHT22;3800;48.922;9.444;2024-02-21T08:17:20;6.80;99.90
7518;DHT22;3800;48.922;9.444;2024-02-21T08:19:48;7.00;99.90
7518;DHT22;3800;48.922;9.444;2024-02-21T08:22:17;7.20;99.90
7518;DHT22;3800;48.922;9.444;2024-02-21T08:24:45;7.20;99.90
7518;DHT22;3800;48.922;9.444;2024-02-21T08:27:14;7.30;99.90
7518;DHT22;3800;48.922;9.444;2024-02-21T08:29:43;7.40;99.90
7518;DHT22;3800;48.922;9.444;2024-02-21T08:32:11;7.50;99.90
7518;DHT22;3800;48.922;9.444;2024-02-21T08:34:39;7.60;99.90
7518;DHT22;3800;48.922;9.444;2024-02-21T08:37:08;7.70;99.90
7518;DHT22;3800;48.922;9.444;2024-02-21T08:39:36;7.80;99.90
7518;DHT22;3800;48.922;9.444;2024-02-21T08:42:05;7.90;99.90
7518;DHT22;3800;48.922;9.444;2024-02-21T08:44:33;7.90;99.90
7518;DHT22;3800;48.922;9.444;2024-02-21T08:47:01;8.00;99.90
7518;DHT22;3800;48.922;9.444;2024-02-21T08:49:29;8.00;99.90
7518;DHT22;3800;48.922;9.444;2024-02-21T08:51:58;8.10;99.90
7518;DHT22;3800;48.922;9.444;2024-02-21T08:54:26;8.10;99.90
7518;DHT22;3800;48.922;9.444;2024-02-21T08:56:55;8.10;99.90
7518;DHT22;3800;48.922;9.444;2024-02-21T08:59:23;8.10;99.90
7518;DHT22;3800;48.922;9.444;2024-02-21T09:01:52;8.20;99.90
7518;DHT22;3800;48.922;9.444;2024-02-21T09:04:20;8.10;99.90
7518;DHT22;3800;48.922;9.444;2024-02-21T09:06:48;8.20;99.90
7518;DHT22;3800;48.922;9.444;2024-02-21T09:09:16;8.10;99.90
7518;DHT22;3800;48.922;9.444;2024-02-21T09:11:45;8.20;99.90
7518;DHT22;3800;48.922;9.444;2024-02-21T09:14:13;8.20;99.90
7518;DHT22;3800;48.922;9.444;2024-02-21T09:16:41;8.20;99.90
7518;DHT22;3800;48.922;9.444;2024-02-21T09:19:10;8.20;99.90
7518;DHT22;3800;48.922;9.444;2024-02-21T09:21:39;8.10;99.90
7518;DHT22;3800;48.922;9.444;2024-02-21T09:24:07;8.20;99.90
7518;DHT22;3800;48.922;9.444;2024-02-21T09:26:35;8.20;99.90
7518;DHT22;3800;48.922;9.444;2024-02-21T09:29:03;8.20;99.90
7518;DHT22;3800;48.922;9.444;2024-02-21T09:31:32;8.30;99.90
7518;DHT22;3800;48.922;9.444;2024-02-21T09:34:00;8.30;99.90
7518;DHT22;3800;48.922;9.444;2024-02-21T09:36:28;8.30;99.90
7518;DHT22;3800;48.922;9.444;2024-02-21T09:38:56;8.30;99.90
7518;DHT22;3800;48.922;9.444;2024-02-21T09:41:25;8.40;99.90
7518;DHT22;3800;48.922;9.444;2024-02-21T09:43:54;8.40;99.90
7518;DHT22;3800;48.922;9.444;2024-02-21T09:49:25;8.50;99.90
7518;DHT22;3800;48.922;9.444;2024-02-21T09:51:51;8.60;99.90
7518;DHT22;3800;48.922;9.444;2024-02-21T09:54:18;8.60;99.90
7518;DHT22;3800;48.922;9.444;2024-02-21T09:56:47;8.60;99.90
7518;DHT22;3800;48.922;9.444;2024-02-21T09:59:15;8.70;99.90
7518;DHT22;3800;48.922;9.444;2024-02-21T10:01:44;8.70;99.90
7518;DHT22;3800;48.922;9.444;2024-02-21T10:04:12;8.80;99.90
7518;DHT22;3800;48.922;9.444;2024-02-21T10:06:41;8.90;99.90
7518;DHT22;3800;48.922;9.444;2024-02-21T10:09:09;8.90;99.90
7518;DHT22;3800;48.922;9.444;2024-02-21T10:11:37;9.00;99.90
7518;DHT22;3800;48.922;9.444;2024-02-21T10:14:06;9.00;99.90
7518;DHT22;3800;48.922;9.444;2024-02-21T10:16:35;9.00;99.90
7518;DHT22;3800;48.922;9.444;2024-02-21T10:19:03;9.10;99.90
7518;DHT22;3800;48.922;9.444;2024-02-21T10:21:31;9.10;99.90
7518;DHT22;3800;48.922;9.444;2024-02-21T10:24:00;9.20;99.90
7518;DHT22;3800;48.922;9.444;2024-02-21T10:26:28;9.20;99.90
7518;DHT22;3800;48.922;9.444;2024-02-21T10:28:57;9.20;99.90
7518;DHT22;3800;48.922;9.444;2024-02-21T10:31:26;9.20;99.90
7518;DHT22;3800;48.922;9.444;2024-02-21T10:33:58;9.30;99.90
7518;DHT22;3800;48.922;9.444;2024-02-21T10:36:26;9.30;99.90
7518;DHT22;3800;48.922;9.444;2024-02-21T10:38:54;9.40;99.90
7518;DHT22;3800;48.922;9.444;2024-02-21T10:41:23;9.50;99.90
7518;DHT22;3800;48.922;9.444;2024-02-21T10:43:52;9.50;99.90
7518;DHT22;3800;48.922;9.444;2024-02-21T10:46:20;9.60;99.90
7518;DHT22;3800;48.922;9.444;2024-02-21T10:48:51;9.60;99.90
7518;DHT22;3800;48.922;9.444;2024-02-21T10:51:18;9.60;99.90
7518;DHT22;3800;48.922;9.444;2024-02-21T10:53:56;9.70;99.90
7518;DHT22;3800;48.922;9.444;2024-02-21T10:56:29;9.80;99.90
7518;DHT22;3800;48.922;9.444;2024-02-21T10:58:58;9.80;99.90
7518;DHT22;3800;48.922;9.444;2024-02-21T11:01:27;9.90;99.90
7518;DHT22;3800;48.922;9.444;2024-02-21T11:03:56;9.90;99.90
7518;DHT22;3800;48.922;9.444;2024-02-21T11:06:24;10.00;99.90
7518;DHT22;3800;48.922;9.444;2024-02-21T11:09:01;10.00;99.90
7518;DHT22;3800;48.922;9.444;2024-02-21T11:11:35;10.10;99.90
7518;DHT22;3800;48.922;9.444;2024-02-21T11:14:08;10.20;99.90
7518;DHT22;3800;48.922;9.444;2024-02-21T11:16:39;10.20;99.90
7518;DHT22;3800;48.922;9.444;2024-02-21T11:19:08;10.30;99.90
7518;DHT22;3800;48.922;9.444;2024-02-21T11:21:37;10.30;99.90
7518;DHT22;3800;48.922;9.444;2024-02-21T11:24:07;10.30;99.90
7518;DHT22;3800;48.922;9.444;2024-02-21T11:26:37;10.40;99.90
7518;DHT22;3800;48.922;9.444;2024-02-21T11:29:06;10.50;99.90
7518;DHT22;3800;48.922;9.444;2024-02-21T11:31:40;10.50;99.90
7518;DHT22;3800;48.922;9.444;2024-02-21T11:34:10;10.60;99.90
7518;DHT22;3800;48.922;9.444;2024-02-21T11:36:46;10.60;99.90
7518;DHT22;3800;48.922;9.444;2024-02-21T11:39:17;10.60;99.90
7518;DHT22;3800;48.922;9.444;2024-02-21T11:41:46;10.70;99.90
7518;DHT22;3800;48.922;9.444;2024-02-21T11:44:14;10.70;99.90
7518;DHT22;3800;48.922;9.444;2024-02-21T11:46:42;10.70;99.90
7518;DHT22;3800;48.922;9.444;2024-02-21T11:49:10;10.70;99.90
7518;DHT22;3800;48.922;9.444;2024-02-21T11:51:39;10.70;99.90
7518;DHT22;3800;48.922;9.444;2024-02-21T11:54:08;10.80;99.90
7518;DHT22;3800;48.922;9.444;2024-02-21T11:56:36;10.80;99.90
7518;DHT22;3800;48.922;9.444;2024-02-21T11:59:05;10.90;99.90
7518;DHT22;3800;48.922;9.444;2024-02-21T12:01:34;10.90;99.90
7518;DHT22;3800;48.922;9.444;2024-02-21T12:04:02;10.90;99.90
7518;DHT22;3800;48.922;9.444;2024-02-21T12:06:32;10.90;99.90
7518;DHT22;3800;48.922;9.444;2024-02-21T12:08:59;10.90;99.90
7518;DHT22;3800;48.922;9.444;2024-02-21T12:11:29;11.00;99.90
7518;DHT22;3800;48.922;9.444;2024-02-21T12:13:59;11.10;99.90
7518;DHT22;3800;48.922;9.444;2024-02-21T12:16:27;11.10;99.90
7518;DHT22;3800;48.922;9.444;2024-02-21T12:18:55;11.10;99.90
7518;DHT22;3800;48.922;9.444;2024-02-21T12:21:24;11.10;99.90
7518;DHT22;3800;48.922;9.444;2024-02-21T12:23:54;11.10;99.90
7518;DHT22;3800;48.922;9.444;2024-02-21T12:26:22;11.20;99.90
7518;DHT22;3800;48.922;9.444;2024-02-21T12:28:53;11.20;99.90
7518;DHT22;3800;48.922;9.444;2024-02-21T12:31:21;11.20;99.90
7518;DHT22;3800;48.922;9.444;2024-02-21T12:33:50;11.20;99.90
7518;DHT22;3800;48.922;9.444;2024-02-21T12:36:19;11.20;99.90
7518;DHT22;3800;48.922;9.444;2024-02-21T12:38:47;11.20;99.90
7518;DHT22;3800;48.922;9.444;2024-02-21T12:41:16;11.20;99.90
7518;DHT22;3800;48.922;9.444;2024-02-21T12:43:45;11.20;99.90
7518;DHT22;3800;48.922;9.444;2024-02-21T12:46:14;11.20;99.90
7518;DHT22;3800;48.922;9.444;2024-02-21T12:48:42;11.30;99.90
7518;DHT22;3800;48.922;9.444;2024-02-21T12:51:10;11.30;99.90
7518;DHT22;3800;48.922;9.444;2024-02-21T12:53:39;11.30;99.90
7518;DHT22;3800;48.922;9.444;2024-02-21T12:56:07;11.30;99.90
7518;DHT22;3800;48.922;9.444;2024-02-21T12:58:36;11.40;99.90
7518;DHT22;3800;48.922;9.444;2024-02-21T13:01:05;11.40;99.90
7518;DHT22;3800;48.922;9.444;2024-02-21T13:03:32;11.40;99.90
7518;DHT22;3800;48.922;9.444;2024-02-21T13:06:01;11.50;99.90
7518;DHT22;3800;48.922;9.444;2024-02-21T13:08:29;11.40;99.90
7518;DHT22;3800;48.922;9.444;2024-02-21T13:10:57;11.50;99.90
7518;DHT22;3800;48.922;9.444;2024-02-21T13:13:26;11.50;99.90
7518;DHT22;3800;48.922;9.444;2024-02-21T13:15:55;11.50;99.90
7518;DHT22;3800;48.922;9.444;2024-02-21T13:18:23;11.60;99.90
7518;DHT22;3800;48.922;9.444;2024-02-21T13:20:52;11.60;99.90
7518;DHT22;3800;48.922;9.444;2024-02-21T13:23:21;11.60;99.90
7518;DHT22;3800;48.922;9.444;2024-02-21T13:25:49;11.60;99.90
7518;DHT22;3800;48.922;9.444;2024-02-21T13:28:19;11.60;99.90
7518;DHT22;3800;48.922;9.444;2024-02-21T13:30:47;11.60;99.90
7518;DHT22;3800;48.922;9.444;2024-02-21T13:33:16;11.60;99.90
7518;DHT22;3800;48.922;9.444;2024-02-21T13:35:44;11.60;99.90
7518;DHT22;3800;48.922;9.444;2024-02-21T13:38:13;11.60;99.90
7518;DHT22;3800;48.922;9.444;2024-02-21T13:40:41;11.60;99.90
7518;DHT22;3800;48.922;9.444;2024-02-21T13:43:10;11.70;99.90
7518;DHT22;3800;48.922;9.444;2024-02-21T13:45:38;11.70;99.90
7518;DHT22;3800;48.922;9.444;2024-02-21T13:48:07;11.70;99.90
7518;DHT22;3800;48.922;9.444;2024-02-21T13:50:36;11.70;99.90
7518;DHT22;3800;48.922;9.444;2024-02-21T13:53:04;11.60;99.90
7518;DHT22;3800;48.922;9.444;2024-02-21T13:55:33;11.60;99.90
7518;DHT22;3800;48.922;9.444;2024-02-21T13:58:03;11.60;99.90
7518;DHT22;3800;48.922;9.444;2024-02-21T14:00:31;11.60;99.90
7518;DHT22;3800;48.922;9.444;2024-02-21T14:03:00;11.60;99.90
7518;DHT22;3800;48.922;9.444;2024-02-21T14:05:28;11.60;99.90
7518;DHT22;3800;48.922;9.444;2024-02-21T14:07:56;11.50;99.90
7518;DHT22;3800;48.922;9.444;2024-02-21T14:10:25;11.50;99.90
7518;DHT22;3800;48.922;9.444;2024-02-21T14:12:54;11.50;99.90
7518;DHT22;3800;48.922;9.444;2024-02-21T14:15:23;11.50;99.90
7518;DHT22;3800;48.922;9.444;2024-02-21T14:17:52;11.50;99.90
7518;DHT22;3800;48.922;9.444;2024-02-21T14:20:22;11.50;99.90
7518;DHT22;3800;48.922;9.444;2024-02-21T14:22:50;11.50;99.90
7518;DHT22;3800;48.922;9.444;2024-02-21T14:25:19;11.50;99.90
7518;DHT22;3800;48.922;9.444;2024-02-21T14:27:48;11.50;99.90
7518;DHT22;3800;48.922;9.444;2024-02-21T14:30:16;11.40;99.90
7518;DHT22;3800;48.922;9.444;2024-02-21T14:32:44;11.50;99.90
7518;DHT22;3800;48.922;9.444;2024-02-21T14:35:13;11.40;99.90
7518;DHT22;3800;48.922;9.444;2024-02-21T14:37:41;11.50;99.90
7518;DHT22;3800;48.922;9.444;2024-02-21T14:40:10;11.50;99.90
7518;DHT22;3800;48.922;9.444;2024-02-21T14:42:39;11.50;99.90
7518;DHT22;3800;48.922;9.444;2024-02-21T14:45:08;11.40;99.90
7518;DHT22;3800;48.922;9.444;2024-02-21T14:47:36;11.40;99.90
7518;DHT22;3800;48.922;9.444;2024-02-21T14:50:06;11.40;99.90
7518;DHT22;3800;48.922;9.444;2024-02-21T14:52:34;11.40;99.90
7518;DHT22;3800;48.922;9.444;2024-02-21T14:55:03;11.40;99.90
7518;DHT22;3800;48.922;9.444;2024-02-21T14:57:31;11.40;99.90
7518;DHT22;3800;48.922;9.444;2024-02-21T15:00:01;11.40;99.90
7518;DHT22;3800;48.922;9.444;2024-02-21T15:02:30;11.50;99.90
7518;DHT22;3800;48.922;9.444;2024-02-21T15:05:00;11.50;99.90
7518;DHT22;3800;48.922;9.444;2024-02-21T15:07:28;11.50;99.90
7518;DHT22;3800;48.922;9.444;2024-02-21T15:09:56;11.50;99.90
7518;DHT22;3800;48.922;9.444;2024-02-21T15:12:24;11.50;99.90
7518;DHT22;3800;48.922;9.444;2024-02-21T15:14:53;11.50;99.90
7518;DHT22;3800;48.922;9.444;2024-02-21T15:17:22;11.50;99.90
7518;DHT22;3800;48.922;9.444;2024-02-21T15:19:50;11.50;99.90
7518;DHT22;3800;48.922;9.444;2024-02-21T15:22:18;11.50;99.90
7518;DHT22;3800;48.922;9.444;2024-02-21T15:24:47;11.50;99.90
7518;DHT22;3800;48.922;9.444;2024-02-21T15:27:22;11.50;99.90
7518;DHT22;3800;48.922;9.444;2024-02-21T15:29:50;11.50;99.90
7518;DHT22;3800;48.922;9.444;2024-02-21T15:32:18;11.50;99.90
7518;DHT22;3800;48.922;9.444;2024-02-21T15:34:47;11.50;99.90
7518;DHT22;3800;48.922;9.444;2024-02-21T15:37:15;11.40;99.90
7518;DHT22;3800;48.922;9.444;2024-02-21T15:39:43;11.40;99.90
7518;DHT22;3800;48.922;9.444;2024-02-21T15:42:11;11.40;99.90
7518;DHT22;3800;48.922;9.444;2024-02-21T15:44:40;11.40;99.90
7518;DHT22;3800;48.922;9.444;2024-02-21T15:47:08;11.30;99.90
7518;DHT22;3800;48.922;9.444;2024-02-21T15:49:36;11.30;99.90
7518;DHT22;3800;48.922;9.444;2024-02-21T15:52:05;11.20;99.90
7518;DHT22;3800;48.922;9.444;2024-02-21T15:54:34;11.20;99.90
7518;DHT22;3800;48.922;9.444;2024-02-21T15:57:03;11.20;99.90
7518;DHT22;3800;48.922;9.444;2024-02-21T15:59:33;11.10;99.90
7518;DHT22;3800;48.922;9.444;2024-02-21T16:02:02;11.10;99.90
7518;DHT22;3800;48.922;9.444;2024-02-21T16:04:31;11.10;99.90
7518;DHT22;3800;48.922;9.444;2024-02-21T16:06:59;11.10;99.90
7518;DHT22;3800;48.922;9.444;2024-02-21T16:09:29;11.00;99.90
7518;DHT22;3800;48.922;9.444;2024-02-21T16:11:58;11.00;99.90
7518;DHT22;3800;48.922;9.444;2024-02-21T16:14:26;11.00;99.90
7518;DHT22;3800;48.922;9.444;2024-02-21T16:16:54;11.00;99.90
7518;DHT22;3800;48.922;9.444;2024-02-21T16:19:23;10.90;99.90
7518;DHT22;3800;48.922;9.444;2024-02-21T16:21:52;10.90;99.90
7518;DHT22;3800;48.922;9.444;2024-02-21T16:24:20;10.90;99.90